sensor_id;sensor_type;location;lat;lon;timestamp;P1;durP1;ratioP1;P2;durP2;ratioP2
68050;SDS011;54839;51.364;7.246;2023-03-05T00:00:36;4.90;;;2.67;;
68050;SDS011;54839;51.364;7.246;2023-03-05T00:03:01;14.60;;;2.93;;
68050;SDS011;54839;51.364;7.246;2023-03-05T00:05:27;8.63;;;2.73;;
68050;SDS011;54839;51.364;7.246;2023-03-05T00:07:52;9.57;;;2.60;;
68050;SDS011;54839;51.364;7.246;2023-03-05T00:10:18;6.87;;;3.10;;
68050;SDS011;54839;51.364;7.246;2023-03-05T00:12:43;12.47;;;3.60;;
68050;SDS011;54839;51.364;7.246;2023-03-05T00:15:09;10.17;;;2.73;;
68050;SDS011;54839;51.364;7.246;2023-03-05T00:17:35;8.90;;;3.23;;
68050;SDS011;54839;51.364;7.246;2023-03-05T00:20:00;8.50;;;3.10;;
68050;SDS011;54839;51.364;7.246;2023-03-05T00:22:26;9.47;;;3.13;;
68050;SDS011;54839;51.364;7.246;2023-03-05T00:24:51;8.27;;;3.37;;
68050;SDS011;54839;51.364;7.246;2023-03-05T00:27:17;11.73;;;3.70;;
68050;SDS011;54839;51.364;7.246;2023-03-05T00:29:43;17.13;;;3.63;;
68050;SDS011;54839;51.364;7.246;2023-03-05T00:32:08;8.43;;;2.90;;
68050;SDS011;54839;51.364;7.246;2023-03-05T00:34:34;9.03;;;3.00;;
68050;SDS011;54839;51.364;7.246;2023-03-05T00:37:00;8.60;;;3.30;;
68050;SDS011;54839;51.364;7.246;2023-03-05T00:39:26;13.57;;;3.30;;
68050;SDS011;54839;51.364;7.246;2023-03-05T00:41:52;11.30;;;3.87;;
68050;SDS011;54839;51.364;7.246;2023-03-05T00:44:18;8.10;;;3.60;;
68050;SDS011;54839;51.364;7.246;2023-03-05T00:46:44;9.67;;;3.67;;
68050;SDS011;54839;51.364;7.246;2023-03-05T00:49:10;11.83;;;3.77;;
68050;SDS011;54839;51.364;7.246;2023-03-05T00:51:36;7.90;;;4.00;;
68050;SDS011;54839;51.364;7.246;2023-03-05T00:54:02;7.20;;;3.73;;
68050;SDS011;54839;51.364;7.246;2023-03-05T00:56:28;14.20;;;4.50;;
68050;SDS011;54839;51.364;7.246;2023-03-05T00:58:53;20.33;;;6.00;;
68050;SDS011;54839;51.364;7.246;2023-03-05T01:01:20;13.10;;;4.07;;
68050;SDS011;54839;51.364;7.246;2023-03-05T01:03:45;14.43;;;4.43;;
68050;SDS011;54839;51.364;7.246;2023-03-05T01:06:12;15.30;;;3.93;;
68050;SDS011;54839;51.364;7.246;2023-03-05T01:08:39;10.97;;;4.13;;
68050;SDS011;54839;51.364;7.246;2023-03-05T01:11:05;7.93;;;3.67;;
68050;SDS011;54839;51.364;7.246;2023-03-05T01:13:32;6.10;;;3.73;;
68050;SDS011;54839;51.364;7.246;2023-03-05T01:15:57;9.27;;;4.20;;
68050;SDS011;54839;51.364;7.246;2023-03-05T01:18:24;7.50;;;3.20;;
68050;SDS011;54839;51.364;7.246;2023-03-05T01:20:49;5.60;;;2.77;;
68050;SDS011;54839;51.364;7.246;2023-03-05T01:23:15;4.60;;;2.87;;
68050;SDS011;54839;51.364;7.246;2023-03-05T01:25:40;9.40;;;2.90;;
68050;SDS011;54839;51.364;7.246;2023-03-05T01:28:06;11.87;;;3.50;;
68050;SDS011;54839;51.364;7.246;2023-03-05T01:30:32;8.57;;;2.07;;
68050;SDS011;54839;51.364;7.246;2023-03-05T01:32:58;8.40;;;2.33;;
68050;SDS011;54839;51.364;7.246;2023-03-05T01:35:24;10.37;;;3.13;;
68050;SDS011;54839;51.364;7.246;2023-03-05T01:37:50;6.03;;;2.53;;
68050;SDS011;54839;51.364;7.246;2023-03-05T01:40:18;10.80;;;2.80;;
68050;SDS011;54839;51.364;7.246;2023-03-05T01:42:48;4.57;;;2.20;;
68050;SDS011;54839;51.364;7.246;2023-03-05T01:45:21;4.63;;;2.27;;
68050;SDS011;54839;51.364;7.246;2023-03-05T01:47:47;7.50;;;2.50;;
68050;SDS011;54839;51.364;7.246;2023-03-05T01:50:15;7.80;;;2.83;;
68050;SDS011;54839;51.364;7.246;2023-03-05T01:52:45;5.57;;;2.43;;
68050;SDS011;54839;51.364;7.246;2023-03-05T01:55:17;7.20;;;2.90;;
68050;SDS011;54839;51.364;7.246;2023-03-05T01:57:49;3.80;;;2.30;;
68050;SDS011;54839;51.364;7.246;2023-03-05T02:00:19;11.13;;;3.03;;
68050;SDS011;54839;51.364;7.246;2023-03-05T02:02:53;6.07;;;2.23;;
68050;SDS011;54839;51.364;7.246;2023-03-05T02:05:22;9.97;;;3.40;;
68050;SDS011;54839;51.364;7.246;2023-03-05T02:07:57;5.50;;;2.63;;
68050;SDS011;54839;51.364;7.246;2023-03-05T02:10:26;8.43;;;3.30;;
68050;SDS011;54839;51.364;7.246;2023-03-05T02:12:57;6.60;;;3.17;;
68050;SDS011;54839;51.364;7.246;2023-03-05T02:15:25;11.33;;;3.60;;
68050;SDS011;54839;51.364;7.246;2023-03-05T02:17:50;10.60;;;3.70;;
68050;SDS011;54839;51.364;7.246;2023-03-05T02:20:18;9.63;;;2.50;;
68050;SDS011;54839;51.364;7.246;2023-03-05T02:22:45;9.27;;;3.20;;
68050;SDS011;54839;51.364;7.246;2023-03-05T02:25:15;10.10;;;2.90;;
68050;SDS011;54839;51.364;7.246;2023-03-05T02:27:49;11.63;;;4.10;;
68050;SDS011;54839;51.364;7.246;2023-03-05T02:30:22;7.40;;;4.10;;
68050;SDS011;54839;51.364;7.246;2023-03-05T02:32:47;13.33;;;4.97;;
68050;SDS011;54839;51.364;7.246;2023-03-05T02:35:13;13.13;;;5.00;;
68050;SDS011;54839;51.364;7.246;2023-03-05T02:37:39;8.57;;;4.57;;
68050;SDS011;54839;51.364;7.246;2023-03-05T02:40:05;11.60;;;4.30;;
68050;SDS011;54839;51.364;7.246;2023-03-05T02:42:31;6.30;;;3.23;;
68050;SDS011;54839;51.364;7.246;2023-03-05T02:44:58;14.77;;;4.00;;
68050;SDS011;54839;51.364;7.246;2023-03-05T02:47:25;7.97;;;2.97;;
68050;SDS011;54839;51.364;7.246;2023-03-05T02:49:51;6.17;;;2.63;;
68050;SDS011;54839;51.364;7.246;2023-03-05T02:52:17;8.83;;;2.97;;
68050;SDS011;54839;51.364;7.246;2023-03-05T02:54:43;6.13;;;2.60;;
68050;SDS011;54839;51.364;7.246;2023-03-05T02:57:08;6.17;;;2.10;;
68050;SDS011;54839;51.364;7.246;2023-03-05T02:59:33;7.40;;;2.50;;
68050;SDS011;54839;51.364;7.246;2023-03-05T03:01:59;7.53;;;2.40;;
68050;SDS011;54839;51.364;7.246;2023-03-05T03:04:24;5.53;;;2.00;;
68050;SDS011;54839;51.364;7.246;2023-03-05T03:06:50;6.97;;;1.73;;
68050;SDS011;54839;51.364;7.246;2023-03-05T03:09:15;6.83;;;2.40;;
68050;SDS011;54839;51.364;7.246;2023-03-05T03:11:41;4.57;;;1.83;;
68050;SDS011;54839;51.364;7.246;2023-03-05T03:14:07;5.13;;;2.07;;
68050;SDS011;54839;51.364;7.246;2023-03-05T03:16:32;4.23;;;1.90;;
68050;SDS011;54839;51.364;7.246;2023-03-05T03:18:58;5.67;;;2.53;;
68050;SDS011;54839;51.364;7.246;2023-03-05T03:21:24;7.30;;;1.93;;
68050;SDS011;54839;51.364;7.246;2023-03-05T03:23:51;2.33;;;1.63;;
68050;SDS011;54839;51.364;7.246;2023-03-05T03:26:17;3.90;;;2.23;;
68050;SDS011;54839;51.364;7.246;2023-03-05T03:28:43;8.13;;;1.90;;
68050;SDS011;54839;51.364;7.246;2023-03-05T03:31:09;3.10;;;2.10;;
68050;SDS011;54839;51.364;7.246;2023-03-05T03:33:34;4.13;;;1.60;;
68050;SDS011;54839;51.364;7.246;2023-03-05T03:36:00;5.10;;;2.47;;
68050;SDS011;54839;51.364;7.246;2023-03-05T03:38:26;6.63;;;2.73;;
68050;SDS011;54839;51.364;7.246;2023-03-05T03:40:51;4.70;;;2.87;;
68050;SDS011;54839;51.364;7.246;2023-03-05T03:43:17;6.20;;;2.43;;
68050;SDS011;54839;51.364;7.246;2023-03-05T03:45:42;5.07;;;2.47;;
68050;SDS011;54839;51.364;7.246;2023-03-05T03:48:08;6.00;;;2.77;;
68050;SDS011;54839;51.364;7.246;2023-03-05T03:50:37;6.77;;;3.23;;
68050;SDS011;54839;51.364;7.246;2023-03-05T03:53:04;6.23;;;2.20;;
68050;SDS011;54839;51.364;7.246;2023-03-05T03:55:29;7.23;;;3.00;;
68050;SDS011;54839;51.364;7.246;2023-03-05T03:57:55;5.07;;;3.33;;
68050;SDS011;54839;51.364;7.246;2023-03-05T04:00:21;7.37;;;4.30;;
68050;SDS011;54839;51.364;7.246;2023-03-05T04:02:46;6.83;;;4.03;;
68050;SDS011;54839;51.364;7.246;2023-03-05T04:05:12;10.37;;;4.27;;
68050;SDS011;54839;51.364;7.246;2023-03-05T04:07:38;10.13;;;4.90;;
68050;SDS011;54839;51.364;7.246;2023-03-05T04:10:03;11.10;;;5.17;;
68050;SDS011;54839;51.364;7.246;2023-03-05T04:12:29;10.50;;;6.03;;
68050;SDS011;54839;51.364;7.246;2023-03-05T04:14:55;10.43;;;5.33;;
68050;SDS011;54839;51.364;7.246;2023-03-05T04:17:20;13.40;;;4.50;;
68050;SDS011;54839;51.364;7.246;2023-03-05T04:19:46;7.97;;;3.90;;
68050;SDS011;54839;51.364;7.246;2023-03-05T04:22:12;4.90;;;3.73;;
68050;SDS011;54839;51.364;7.246;2023-03-05T04:24:38;10.50;;;4.30;;
68050;SDS011;54839;51.364;7.246;2023-03-05T04:27:04;11.20;;;4.50;;
68050;SDS011;54839;51.364;7.246;2023-03-05T04:29:30;9.20;;;4.27;;
68050;SDS011;54839;51.364;7.246;2023-03-05T04:31:57;10.10;;;5.20;;
68050;SDS011;54839;51.364;7.246;2023-03-05T04:34:22;8.87;;;4.80;;
68050;SDS011;54839;51.364;7.246;2023-03-05T04:36:48;5.37;;;3.87;;
68050;SDS011;54839;51.364;7.246;2023-03-05T04:39:14;12.53;;;4.70;;
68050;SDS011;54839;51.364;7.246;2023-03-05T04:41:39;10.10;;;4.20;;
68050;SDS011;54839;51.364;7.246;2023-03-05T04:44:05;7.63;;;5.33;;
68050;SDS011;54839;51.364;7.246;2023-03-05T04:46:30;13.43;;;5.83;;
68050;SDS011;54839;51.364;7.246;2023-03-05T04:48:56;15.33;;;8.20;;
68050;SDS011;54839;51.364;7.246;2023-03-05T04:51:22;13.17;;;8.03;;
68050;SDS011;54839;51.364;7.246;2023-03-05T04:53:48;12.47;;;7.40;;
68050;SDS011;54839;51.364;7.246;2023-03-05T04:56:13;16.47;;;8.70;;
68050;SDS011;54839;51.364;7.246;2023-03-05T04:58:39;16.37;;;11.90;;
68050;SDS011;54839;51.364;7.246;2023-03-05T05:01:05;24.90;;;14.37;;
68050;SDS011;54839;51.364;7.246;2023-03-05T05:03:31;22.77;;;15.20;;
68050;SDS011;54839;51.364;7.246;2023-03-05T05:05:58;22.50;;;13.57;;
68050;SDS011;54839;51.364;7.246;2023-03-05T05:08:24;20.57;;;11.03;;
68050;SDS011;54839;51.364;7.246;2023-03-05T05:11:04;20.97;;;14.03;;
68050;SDS011;54839;51.364;7.246;2023-03-05T05:13:32;23.43;;;13.40;;
68050;SDS011;54839;51.364;7.246;2023-03-05T05:15:58;21.30;;;11.70;;
68050;SDS011;54839;51.364;7.246;2023-03-05T05:18:23;24.73;;;13.63;;
68050;SDS011;54839;51.364;7.246;2023-03-05T05:20:49;25.37;;;12.40;;
68050;SDS011;54839;51.364;7.246;2023-03-05T05:23:15;18.53;;;12.50;;
68050;SDS011;54839;51.364;7.246;2023-03-05T05:25:41;17.80;;;10.87;;
68050;SDS011;54839;51.364;7.246;2023-03-05T05:28:08;18.77;;;10.37;;
68050;SDS011;54839;51.364;7.246;2023-03-05T05:30:34;12.83;;;7.83;;
68050;SDS011;54839;51.364;7.246;2023-03-05T05:33:00;9.50;;;6.20;;
68050;SDS011;54839;51.364;7.246;2023-03-05T05:35:26;12.00;;;6.90;;
68050;SDS011;54839;51.364;7.246;2023-03-05T05:37:51;12.73;;;7.07;;
68050;SDS011;54839;51.364;7.246;2023-03-05T05:40:17;10.07;;;6.30;;
68050;SDS011;54839;51.364;7.246;2023-03-05T05:42:42;11.17;;;6.57;;
68050;SDS011;54839;51.364;7.246;2023-03-05T05:45:09;15.10;;;6.70;;
68050;SDS011;54839;51.364;7.246;2023-03-05T05:47:35;11.90;;;6.80;;
68050;SDS011;54839;51.364;7.246;2023-03-05T05:50:01;14.17;;;8.17;;
68050;SDS011;54839;51.364;7.246;2023-03-05T05:52:27;15.47;;;9.07;;
68050;SDS011;54839;51.364;7.246;2023-03-05T05:54:52;20.33;;;9.30;;
68050;SDS011;54839;51.364;7.246;2023-03-05T05:57:18;16.50;;;9.47;;
68050;SDS011;54839;51.364;7.246;2023-03-05T05:59:43;17.07;;;9.57;;
68050;SDS011;54839;51.364;7.246;2023-03-05T06:02:09;19.77;;;10.13;;
68050;SDS011;54839;51.364;7.246;2023-03-05T06:04:37;17.30;;;9.97;;
68050;SDS011;54839;51.364;7.246;2023-03-05T06:07:04;20.23;;;11.50;;
68050;SDS011;54839;51.364;7.246;2023-03-05T06:09:29;16.27;;;10.10;;
68050;SDS011;54839;51.364;7.246;2023-03-05T06:11:55;15.80;;;9.87;;
68050;SDS011;54839;51.364;7.246;2023-03-05T06:14:20;17.53;;;10.10;;
68050;SDS011;54839;51.364;7.246;2023-03-05T06:16:46;20.23;;;9.17;;
68050;SDS011;54839;51.364;7.246;2023-03-05T06:19:12;16.37;;;8.50;;
68050;SDS011;54839;51.364;7.246;2023-03-05T06:21:38;17.97;;;7.87;;
68050;SDS011;54839;51.364;7.246;2023-03-05T06:24:04;21.07;;;7.40;;
68050;SDS011;54839;51.364;7.246;2023-03-05T06:26:30;13.60;;;5.30;;
68050;SDS011;54839;51.364;7.246;2023-03-05T06:28:56;15.70;;;6.20;;
68050;SDS011;54839;51.364;7.246;2023-03-05T06:31:24;11.40;;;6.23;;
68050;SDS011;54839;51.364;7.246;2023-03-05T06:33:51;10.57;;;6.60;;
68050;SDS011;54839;51.364;7.246;2023-03-05T06:36:19;5.87;;;4.50;;
68050;SDS011;54839;51.364;7.246;2023-03-05T06:38:47;11.70;;;6.03;;
68050;SDS011;54839;51.364;7.246;2023-03-05T06:41:14;7.50;;;5.50;;
68050;SDS011;54839;51.364;7.246;2023-03-05T06:43:42;20.23;;;7.93;;
68050;SDS011;54839;51.364;7.246;2023-03-05T06:48:40;17.50;;;7.83;;
68050;SDS011;54839;51.364;7.246;2023-03-05T06:51:17;12.70;;;8.20;;
68050;SDS011;54839;51.364;7.246;2023-03-05T06:53:44;11.23;;;6.57;;
68050;SDS011;54839;51.364;7.246;2023-03-05T06:56:11;8.47;;;5.30;;
68050;SDS011;54839;51.364;7.246;2023-03-05T06:58:38;8.37;;;4.10;;
68050;SDS011;54839;51.364;7.246;2023-03-05T07:01:07;12.70;;;5.90;;
68050;SDS011;54839;51.364;7.246;2023-03-05T07:03:34;7.80;;;4.07;;
68050;SDS011;54839;51.364;7.246;2023-03-05T07:06:04;11.40;;;4.53;;
68050;SDS011;54839;51.364;7.246;2023-03-05T07:08:31;16.43;;;4.90;;
68050;SDS011;54839;51.364;7.246;2023-03-05T07:10:57;13.33;;;5.00;;
68050;SDS011;54839;51.364;7.246;2023-03-05T07:13:23;8.47;;;4.07;;
68050;SDS011;54839;51.364;7.246;2023-03-05T07:15:49;10.67;;;4.10;;
68050;SDS011;54839;51.364;7.246;2023-03-05T07:18:14;12.67;;;6.40;;
68050;SDS011;54839;51.364;7.246;2023-03-05T07:20:40;11.13;;;4.70;;
68050;SDS011;54839;51.364;7.246;2023-03-05T07:23:05;6.53;;;3.90;;
68050;SDS011;54839;51.364;7.246;2023-03-05T07:25:31;10.93;;;5.07;;
68050;SDS011;54839;51.364;7.246;2023-03-05T07:27:59;13.33;;;3.57;;
68050;SDS011;54839;51.364;7.246;2023-03-05T07:30:24;11.97;;;4.00;;
68050;SDS011;54839;51.364;7.246;2023-03-05T07:32:50;9.67;;;3.47;;
68050;SDS011;54839;51.364;7.246;2023-03-05T07:35:15;6.70;;;3.30;;
68050;SDS011;54839;51.364;7.246;2023-03-05T07:37:41;15.77;;;4.77;;
68050;SDS011;54839;51.364;7.246;2023-03-05T07:40:07;8.73;;;3.70;;
68050;SDS011;54839;51.364;7.246;2023-03-05T07:42:33;5.80;;;2.83;;
68050;SDS011;54839;51.364;7.246;2023-03-05T07:44:58;6.57;;;3.40;;
68050;SDS011;54839;51.364;7.246;2023-03-05T07:47:24;7.60;;;2.70;;
68050;SDS011;54839;51.364;7.246;2023-03-05T07:49:49;6.10;;;3.50;;
68050;SDS011;54839;51.364;7.246;2023-03-05T07:52:15;6.30;;;4.20;;
68050;SDS011;54839;51.364;7.246;2023-03-05T07:54:42;8.40;;;4.10;;
68050;SDS011;54839;51.364;7.246;2023-03-05T07:57:09;11.73;;;5.03;;
68050;SDS011;54839;51.364;7.246;2023-03-05T07:59:36;9.20;;;4.60;;
68050;SDS011;54839;51.364;7.246;2023-03-05T08:02:02;10.60;;;5.20;;
68050;SDS011;54839;51.364;7.246;2023-03-05T08:04:28;12.20;;;7.27;;
68050;SDS011;54839;51.364;7.246;2023-03-05T08:06:55;11.57;;;7.40;;
68050;SDS011;54839;51.364;7.246;2023-03-05T08:09:22;14.30;;;7.37;;
68050;SDS011;54839;51.364;7.246;2023-03-05T08:11:47;21.53;;;9.57;;
68050;SDS011;54839;51.364;7.246;2023-03-05T08:14:13;13.10;;;8.47;;
68050;SDS011;54839;51.364;7.246;2023-03-05T08:16:39;21.90;;;13.27;;
68050;SDS011;54839;51.364;7.246;2023-03-05T08:19:05;18.70;;;10.90;;
68050;SDS011;54839;51.364;7.246;2023-03-05T08:21:32;17.00;;;10.93;;
68050;SDS011;54839;51.364;7.246;2023-03-05T08:24:00;10.63;;;7.77;;
68050;SDS011;54839;51.364;7.246;2023-03-05T08:26:31;17.67;;;6.80;;
68050;SDS011;54839;51.364;7.246;2023-03-05T08:28:58;11.07;;;6.57;;
68050;SDS011;54839;51.364;7.246;2023-03-05T08:31:23;8.17;;;5.90;;
68050;SDS011;54839;51.364;7.246;2023-03-05T08:33:51;8.27;;;5.63;;
68050;SDS011;54839;51.364;7.246;2023-03-05T08:36:18;8.93;;;5.40;;
68050;SDS011;54839;51.364;7.246;2023-03-05T08:38:44;11.50;;;5.70;;
68050;SDS011;54839;51.364;7.246;2023-03-05T08:41:10;15.30;;;8.27;;
68050;SDS011;54839;51.364;7.246;2023-03-05T08:43:36;11.27;;;7.80;;
68050;SDS011;54839;51.364;7.246;2023-03-05T08:46:03;11.50;;;8.30;;
68050;SDS011;54839;51.364;7.246;2023-03-05T08:48:30;11.03;;;6.90;;
68050;SDS011;54839;51.364;7.246;2023-03-05T08:50:56;11.67;;;8.03;;
68050;SDS011;54839;51.364;7.246;2023-03-05T08:53:22;11.40;;;7.30;;
68050;SDS011;54839;51.364;7.246;2023-03-05T08:55:57;18.40;;;8.00;;
68050;SDS011;54839;51.364;7.246;2023-03-05T08:58:23;12.10;;;7.50;;
68050;SDS011;54839;51.364;7.246;2023-03-05T09:00:49;13.03;;;10.30;;
68050;SDS011;54839;51.364;7.246;2023-03-05T09:03:15;20.80;;;14.03;;
68050;SDS011;54839;51.364;7.246;2023-03-05T09:05:41;18.40;;;14.50;;
68050;SDS011;54839;51.364;7.246;2023-03-05T09:08:07;17.67;;;14.63;;
68050;SDS011;54839;51.364;7.246;2023-03-05T09:10:32;21.00;;;14.40;;
68050;SDS011;54839;51.364;7.246;2023-03-05T09:12:58;17.80;;;15.80;;
68050;SDS011;54839;51.364;7.246;2023-03-05T09:15:23;17.37;;;13.63;;
68050;SDS011;54839;51.364;7.246;2023-03-05T09:17:49;19.03;;;16.03;;
68050;SDS011;54839;51.364;7.246;2023-03-05T09:20:15;22.67;;;14.47;;
68050;SDS011;54839;51.364;7.246;2023-03-05T09:22:41;31.00;;;17.40;;
68050;SDS011;54839;51.364;7.246;2023-03-05T09:25:07;25.70;;;18.40;;
68050;SDS011;54839;51.364;7.246;2023-03-05T09:27:35;26.27;;;19.23;;
68050;SDS011;54839;51.364;7.246;2023-03-05T09:30:01;25.03;;;18.00;;
68050;SDS011;54839;51.364;7.246;2023-03-05T09:32:28;27.13;;;17.90;;
68050;SDS011;54839;51.364;7.246;2023-03-05T09:34:54;24.00;;;17.20;;
68050;SDS011;54839;51.364;7.246;2023-03-05T09:37:20;20.90;;;13.50;;
68050;SDS011;54839;51.364;7.246;2023-03-05T09:39:46;15.63;;;12.57;;
68050;SDS011;54839;51.364;7.246;2023-03-05T09:42:26;11.03;;;9.50;;
68050;SDS011;54839;51.364;7.246;2023-03-05T09:47:51;15.87;;;11.77;;
68050;SDS011;54839;51.364;7.246;2023-03-05T09:50:27;13.27;;;10.73;;
68050;SDS011;54839;51.364;7.246;2023-03-05T09:53:03;14.20;;;10.87;;
68050;SDS011;54839;51.364;7.246;2023-03-05T09:55:53;17.23;;;12.00;;
68050;SDS011;54839;51.364;7.246;2023-03-05T10:14:22;17.70;;;11.20;;
68050;SDS011;54839;51.364;7.246;2023-03-05T10:16:52;18.17;;;14.90;;
68050;SDS011;54839;51.364;7.246;2023-03-05T10:19:27;25.40;;;15.90;;
68050;SDS011;54839;51.364;7.246;2023-03-05T10:27:50;26.97;;;19.07;;
68050;SDS011;54839;51.364;7.246;2023-03-05T10:35:52;28.10;;;19.93;;
68050;SDS011;54839;51.364;7.246;2023-03-05T10:44:10;29.60;;;23.47;;
68050;SDS011;54839;51.364;7.246;2023-03-05T10:46:40;34.23;;;23.73;;
68050;SDS011;54839;51.364;7.246;2023-03-05T10:52:06;30.67;;;20.23;;
68050;SDS011;54839;51.364;7.246;2023-03-05T10:54:41;31.57;;;20.67;;
68050;SDS011;54839;51.364;7.246;2023-03-05T10:59:36;36.10;;;22.57;;
68050;SDS011;54839;51.364;7.246;2023-03-05T11:02:03;27.60;;;23.47;;
68050;SDS011;54839;51.364;7.246;2023-03-05T11:04:32;29.13;;;23.07;;
68050;SDS011;54839;51.364;7.246;2023-03-05T11:07:05;34.40;;;23.73;;
68050;SDS011;54839;51.364;7.246;2023-03-05T11:09:40;33.47;;;23.60;;
68050;SDS011;54839;51.364;7.246;2023-03-05T11:17:30;31.07;;;21.17;;
68050;SDS011;54839;51.364;7.246;2023-03-05T11:28:29;29.40;;;22.70;;
68050;SDS011;54839;51.364;7.246;2023-03-05T11:33:39;29.40;;;21.90;;
68050;SDS011;54839;51.364;7.246;2023-03-05T11:38:58;30.70;;;21.37;;
68050;SDS011;54839;51.364;7.246;2023-03-05T11:41:25;25.27;;;19.23;;
68050;SDS011;54839;51.364;7.246;2023-03-05T11:43:55;20.73;;;15.80;;
68050;SDS011;54839;51.364;7.246;2023-03-05T11:46:22;20.73;;;14.97;;
68050;SDS011;54839;51.364;7.246;2023-03-05T11:48:49;18.90;;;14.63;;
68050;SDS011;54839;51.364;7.246;2023-03-05T11:51:24;19.27;;;14.90;;
68050;SDS011;54839;51.364;7.246;2023-03-05T11:53:58;24.97;;;17.40;;
68050;SDS011;54839;51.364;7.246;2023-03-05T11:56:30;22.03;;;15.97;;
68050;SDS011;54839;51.364;7.246;2023-03-05T12:01:44;17.57;;;13.90;;
68050;SDS011;54839;51.364;7.246;2023-03-05T12:04:14;10.30;;;9.17;;
68050;SDS011;54839;51.364;7.246;2023-03-05T12:06:51;16.83;;;11.10;;
68050;SDS011;54839;51.364;7.246;2023-03-05T12:12:07;6.73;;;5.80;;
68050;SDS011;54839;51.364;7.246;2023-03-05T12:15:00;7.53;;;5.30;;
68050;SDS011;54839;51.364;7.246;2023-03-05T12:23:11;6.70;;;5.63;;
68050;SDS011;54839;51.364;7.246;2023-03-05T12:31:00;6.40;;;5.20;;
68050;SDS011;54839;51.364;7.246;2023-03-05T12:33:44;7.10;;;4.40;;
68050;SDS011;54839;51.364;7.246;2023-03-05T12:38:41;4.97;;;3.07;;
68050;SDS011;54839;51.364;7.246;2023-03-05T12:46:37;4.40;;;2.93;;
68050;SDS011;54839;51.364;7.246;2023-03-05T12:51:45;4.43;;;3.87;;
68050;SDS011;54839;51.364;7.246;2023-03-05T12:56:46;7.87;;;5.23;;
68050;SDS011;54839;51.364;7.246;2023-03-05T12:59:12;7.10;;;6.07;;
68050;SDS011;54839;51.364;7.246;2023-03-05T13:02:02;11.73;;;9.37;;
68050;SDS011;54839;51.364;7.246;2023-03-05T13:04:38;10.77;;;8.90;;
68050;SDS011;54839;51.364;7.246;2023-03-05T13:07:16;10.70;;;9.60;;
68050;SDS011;54839;51.364;7.246;2023-03-05T13:09:52;14.03;;;10.47;;
68050;SDS011;54839;51.364;7.246;2023-03-05T13:12:21;13.60;;;10.80;;
68050;SDS011;54839;51.364;7.246;2023-03-05T13:14:58;20.13;;;10.90;;
68050;SDS011;54839;51.364;7.246;2023-03-05T13:17:39;14.37;;;12.90;;
68050;SDS011;54839;51.364;7.246;2023-03-05T13:20:24;12.23;;;10.80;;
68050;SDS011;54839;51.364;7.246;2023-03-05T13:28:30;13.90;;;9.50;;
68050;SDS011;54839;51.364;7.246;2023-03-05T13:30:57;11.10;;;10.00;;
68050;SDS011;54839;51.364;7.246;2023-03-05T13:33:30;10.53;;;9.33;;
68050;SDS011;54839;51.364;7.246;2023-03-05T13:35:58;8.43;;;7.63;;
68050;SDS011;54839;51.364;7.246;2023-03-05T13:41:04;10.57;;;9.03;;
68050;SDS011;54839;51.364;7.246;2023-03-05T13:43:31;12.47;;;10.13;;
68050;SDS011;54839;51.364;7.246;2023-03-05T13:45:56;11.40;;;10.20;;
68050;SDS011;54839;51.364;7.246;2023-03-05T13:48:24;11.80;;;10.70;;
68050;SDS011;54839;51.364;7.246;2023-03-05T13:50:55;12.43;;;10.53;;
68050;SDS011;54839;51.364;7.246;2023-03-05T13:53:26;12.80;;;11.40;;
68050;SDS011;54839;51.364;7.246;2023-03-05T13:55:57;11.17;;;10.07;;
68050;SDS011;54839;51.364;7.246;2023-03-05T14:01:26;10.03;;;8.83;;
68050;SDS011;54839;51.364;7.246;2023-03-05T14:04:02;10.13;;;9.13;;
68050;SDS011;54839;51.364;7.246;2023-03-05T14:06:44;10.77;;;8.60;;
68050;SDS011;54839;51.364;7.246;2023-03-05T14:11:54;9.20;;;7.27;;
68050;SDS011;54839;51.364;7.246;2023-03-05T14:14:25;10.20;;;8.43;;
68050;SDS011;54839;51.364;7.246;2023-03-05T14:16:52;11.10;;;8.43;;
68050;SDS011;54839;51.364;7.246;2023-03-05T14:21:58;9.87;;;8.87;;
68050;SDS011;54839;51.364;7.246;2023-03-05T14:24:25;10.37;;;8.87;;
68050;SDS011;54839;51.364;7.246;2023-03-05T14:26:55;10.83;;;9.40;;
68050;SDS011;54839;51.364;7.246;2023-03-05T14:29:29;10.30;;;8.23;;
68050;SDS011;54839;51.364;7.246;2023-03-05T14:31:59;10.23;;;8.90;;
68050;SDS011;54839;51.364;7.246;2023-03-05T14:34:30;11.80;;;10.40;;
68050;SDS011;54839;51.364;7.246;2023-03-05T14:37:00;10.13;;;9.10;;
68050;SDS011;54839;51.364;7.246;2023-03-05T14:42:49;11.97;;;10.27;;
68050;SDS011;54839;51.364;7.246;2023-03-05T14:45:20;12.80;;;10.37;;
68050;SDS011;54839;51.364;7.246;2023-03-05T14:47:48;10.17;;;8.80;;
68050;SDS011;54839;51.364;7.246;2023-03-05T14:52:42;12.83;;;11.50;;
68050;SDS011;54839;51.364;7.246;2023-03-05T14:55:13;23.97;;;10.63;;
68050;SDS011;54839;51.364;7.246;2023-03-05T14:57:43;10.43;;;9.43;;
68050;SDS011;54839;51.364;7.246;2023-03-05T15:00:20;14.50;;;11.73;;
68050;SDS011;54839;51.364;7.246;2023-03-05T15:02:48;13.20;;;12.00;;
68050;SDS011;54839;51.364;7.246;2023-03-05T15:05:14;9.37;;;8.00;;
68050;SDS011;54839;51.364;7.246;2023-03-05T15:07:41;11.90;;;8.40;;
68050;SDS011;54839;51.364;7.246;2023-03-05T15:10:08;13.77;;;11.23;;
68050;SDS011;54839;51.364;7.246;2023-03-05T15:12:38;12.10;;;10.97;;
68050;SDS011;54839;51.364;7.246;2023-03-05T15:15:03;13.23;;;9.20;;
68050;SDS011;54839;51.364;7.246;2023-03-05T15:19:55;17.13;;;8.83;;
68050;SDS011;54839;51.364;7.246;2023-03-05T15:22:21;17.77;;;10.30;;
68050;SDS011;54839;51.364;7.246;2023-03-05T15:24:47;10.90;;;8.87;;
68050;SDS011;54839;51.364;7.246;2023-03-05T15:27:12;10.37;;;8.63;;
68050;SDS011;54839;51.364;7.246;2023-03-05T15:29:38;10.20;;;9.20;;
68050;SDS011;54839;51.364;7.246;2023-03-05T15:32:05;9.70;;;8.70;;
68050;SDS011;54839;51.364;7.246;2023-03-05T15:34:31;20.03;;;11.03;;
68050;SDS011;54839;51.364;7.246;2023-03-05T15:36:57;17.77;;;12.67;;
68050;SDS011;54839;51.364;7.246;2023-03-05T15:39:23;15.00;;;11.63;;
68050;SDS011;54839;51.364;7.246;2023-03-05T15:41:50;13.53;;;12.03;;
68050;SDS011;54839;51.364;7.246;2023-03-05T15:44:16;15.77;;;11.43;;
68050;SDS011;54839;51.364;7.246;2023-03-05T15:46:42;15.60;;;12.73;;
68050;SDS011;54839;51.364;7.246;2023-03-05T15:49:08;16.10;;;13.53;;
68050;SDS011;54839;51.364;7.246;2023-03-05T15:51:33;13.73;;;9.47;;
68050;SDS011;54839;51.364;7.246;2023-03-05T15:53:59;11.23;;;6.50;;
68050;SDS011;54839;51.364;7.246;2023-03-05T15:56:24;8.60;;;5.20;;
68050;SDS011;54839;51.364;7.246;2023-03-05T15:58:50;8.10;;;7.07;;
68050;SDS011;54839;51.364;7.246;2023-03-05T16:01:16;6.87;;;4.80;;
68050;SDS011;54839;51.364;7.246;2023-03-05T16:03:45;7.30;;;5.90;;
68050;SDS011;54839;51.364;7.246;2023-03-05T16:06:10;5.20;;;4.43;;
68050;SDS011;54839;51.364;7.246;2023-03-05T16:08:37;7.50;;;6.27;;
68050;SDS011;54839;51.364;7.246;2023-03-05T16:11:05;5.63;;;4.40;;
68050;SDS011;54839;51.364;7.246;2023-03-05T16:13:31;7.30;;;5.10;;
68050;SDS011;54839;51.364;7.246;2023-03-05T16:15:58;6.40;;;4.97;;
68050;SDS011;54839;51.364;7.246;2023-03-05T16:18:24;4.83;;;4.17;;
68050;SDS011;54839;51.364;7.246;2023-03-05T16:20:50;8.50;;;4.27;;
68050;SDS011;54839;51.364;7.246;2023-03-05T16:23:16;5.30;;;4.37;;
68050;SDS011;54839;51.364;7.246;2023-03-05T16:25:43;7.00;;;4.07;;
68050;SDS011;54839;51.364;7.246;2023-03-05T16:28:10;6.93;;;6.33;;
68050;SDS011;54839;51.364;7.246;2023-03-05T16:30:35;4.50;;;4.10;;
68050;SDS011;54839;51.364;7.246;2023-03-05T16:33:02;6.53;;;5.90;;
68050;SDS011;54839;51.364;7.246;2023-03-05T16:35:27;5.90;;;5.30;;